createdAt,value
2022-08-21T00:02:02.140Z,99968.28
2022-08-21T00:04:30.084Z,99967.94
2022-08-21T00:06:57.235Z,99972.78
2022-08-21T00:09:23.673Z,99963.38
2022-08-21T00:11:50.214Z,99949.09
2022-08-21T00:14:17.005Z,99955.63
2022-08-21T00:16:43.639Z,99955.44
2022-08-21T00:19:10.139Z,99954.47
2022-08-21T00:21:37.113Z,99956.97
2022-08-21T00:24:04.606Z,99943.72
2022-08-21T00:26:31.068Z,99948.75
2022-08-21T00:28:58.411Z,99945.53
2022-08-21T00:31:25.951Z,99945.69
2022-08-21T00:33:52.576Z,99943.19
2022-08-21T00:36:24.453Z,99944.19
2022-08-21T00:38:50.920Z,99944.00
2022-08-21T00:41:36.838Z,99946.69
2022-08-21T00:44:04.845Z,99940.50
2022-08-21T00:46:31.482Z,99944.34
2022-08-21T00:48:58.816Z,99944.34
2022-08-21T00:51:46.471Z,99945.97
2022-08-21T00:54:18.967Z,99947.66
2022-08-21T00:56:47.993Z,99939.69
2022-08-21T00:59:15.078Z,99937.56
2022-08-21T01:01:41.565Z,99939.25
2022-08-21T01:04:08.330Z,99943.94
2022-08-21T01:06:36.074Z,99944.88
2022-08-21T01:09:03.598Z,99946.19
2022-08-21T01:11:30.572Z,99949.72
2022-08-21T01:13:57.155Z,99943.34
2022-08-21T01:16:23.829Z,99943.34
2022-08-21T01:18:51.281Z,99948.41
2022-08-21T01:21:20.502Z,99942.34
2022-08-21T01:23:48.063Z,99942.34
2022-08-21T01:26:17.075Z,99949.41
2022-08-21T01:28:57.718Z,99950.88
2022-08-21T01:31:26.755Z,99947.00
2022-08-21T01:33:54.220Z,99953.16
2022-08-21T01:36:21.024Z,99950.25
2022-08-21T01:38:48.176Z,99949.25
2022-08-21T01:41:15.617Z,99957.44
2022-08-21T01:43:43.012Z,99950.25
2022-08-21T01:46:10.117Z,99947.72
2022-08-21T01:48:37.276Z,99946.34
2022-08-21T01:51:04.285Z,99952.72
2022-08-21T01:53:33.510Z,99944.84
2022-08-21T01:56:00.994Z,99945.69
2022-08-21T01:58:27.449Z,99944.16
2022-08-21T02:00:54.346Z,99939.09
2022-08-21T02:03:26.436Z,99932.91
2022-08-21T02:06:01.765Z,99938.28
2022-08-21T02:08:29.275Z,99937.03
2022-08-21T02:10:55.758Z,99937.66
2022-08-21T02:13:22.409Z,99932.63
2022-08-21T02:15:49.369Z,99926.44
2022-08-21T02:18:15.951Z,99926.28
2022-08-21T02:20:49.314Z,99923.91
2022-08-21T02:23:26.576Z,99920.38
2022-08-21T02:25:53.699Z,99925.91
2022-08-21T02:28:20.161Z,99914.66
2022-08-21T02:30:48.132Z,99917.50
2022-08-21T02:33:15.700Z,99904.94
2022-08-21T02:35:43.232Z,99907.63
2022-08-21T02:38:14.796Z,99923.53
2022-08-21T02:40:43.910Z,99910.13
2022-08-21T02:43:16.070Z,99925.38
2022-08-21T02:45:43.604Z,99926.38
2022-08-21T02:48:12.689Z,99915.78
2022-08-21T02:50:43.187Z,99912.84
2022-08-21T02:53:11.550Z,99920.06
2022-08-21T02:55:38.869Z,99914.69
2022-08-21T02:58:08.411Z,99919.34
2022-08-21T03:00:36.699Z,99915.72
2022-08-21T03:03:04.589Z,99919.09
2022-08-21T03:05:34.361Z,99910.25
2022-08-21T03:08:02.258Z,99920.97
2022-08-21T03:10:29.919Z,99915.59
2022-08-21T03:13:04.100Z,99917.41
2022-08-21T03:15:30.946Z,99920.25
2022-08-21T03:17:57.405Z,99913.38
2022-08-21T03:20:27.798Z,99916.38
2022-08-21T03:22:55.317Z,99918.19
2022-08-21T03:25:39.551Z,99913.97
2022-08-21T03:28:12.930Z,99920.97
2022-08-21T03:30:43.180Z,99926.31
2022-08-21T03:33:13.068Z,99924.47
2022-08-21T03:35:43.667Z,99934.19
2022-08-21T03:38:10.655Z,99922.94
2022-08-21T03:40:37.190Z,99916.75
2022-08-21T03:43:03.696Z,99929.28
2022-08-21T03:45:30.284Z,99929.59
2022-08-21T03:48:00.894Z,99928.19
2022-08-21T03:50:30.891Z,99934.19
2022-08-21T03:52:57.837Z,99926.06
2022-08-21T03:55:25.317Z,99934.25
2022-08-21T03:57:52.009Z,99928.19
2022-08-21T04:00:19.902Z,99934.25
2022-08-21T04:02:46.574Z,99934.94
2022-08-21T04:05:14.767Z,99939.00
2022-08-21T04:07:41.255Z,99939.97
2022-08-21T04:10:08.524Z,99942.81
2022-08-21T04:12:34.989Z,99947.78
2022-08-21T04:15:02.789Z,99948.78
2022-08-21T04:17:29.328Z,99956.81
2022-08-21T04:19:55.985Z,99956.97
2022-08-21T04:22:22.948Z,99962.59
2022-08-21T04:24:49.417Z,99956.97
2022-08-21T04:27:15.889Z,99957.94
2022-08-21T04:29:42.319Z,99958.78
2022-08-21T04:32:08.822Z,99962.59
2022-08-21T04:34:35.312Z,99958.16
2022-08-21T04:37:01.776Z,99960.97
2022-08-21T04:39:29.723Z,99963.94
2022-08-21T04:41:56.643Z,99964.25
2022-08-21T04:44:23.261Z,99964.25
2022-08-21T04:46:49.718Z,99972.97
2022-08-21T04:49:16.296Z,99970.00
2022-08-21T04:51:42.810Z,99975.88
2022-08-21T04:54:21.840Z,99969.69
2022-08-21T04:56:51.464Z,99981.25
2022-08-21T04:59:29.259Z,99978.00
2022-08-21T05:01:57.619Z,99975.66
2022-08-21T05:04:27.341Z,99975.50
2022-08-21T05:06:56.181Z,99973.97
2022-08-21T05:09:23.116Z,99973.25
2022-08-21T05:11:49.802Z,99965.22
2022-08-21T05:14:16.957Z,99967.75
2022-08-21T05:16:44.811Z,99976.63
2022-08-21T05:19:12.185Z,99981.69
2022-08-21T05:21:42.687Z,99978.72
2022-08-21T05:24:09.184Z,99979.78
2022-08-21T05:26:45.287Z,99991.91
2022-08-21T05:29:14.980Z,99983.72
2022-08-21T05:31:41.576Z,99986.25
2022-08-21T05:34:08.046Z,99986.78
2022-08-21T05:36:34.902Z,99981.81
2022-08-21T05:39:03.058Z,99980.28
2022-08-21T05:41:29.609Z,99983.25
2022-08-21T05:43:56.065Z,99982.41
2022-08-21T05:46:22.653Z,99979.16
2022-08-21T05:48:49.720Z,99984.56
2022-08-21T05:51:16.839Z,99987.47
2022-08-21T05:53:44.189Z,99978.03
2022-08-21T05:56:11.839Z,99973.06
2022-08-21T05:58:38.852Z,99984.31
2022-08-21T06:01:06.073Z,99988.69
2022-08-21T06:03:35.635Z,99983.69
2022-08-21T06:06:02.676Z,99987.63
2022-08-21T06:08:30.158Z,99984.63
2022-08-21T06:10:58.636Z,99988.16
2022-08-21T06:13:25.648Z,99984.34
2022-08-21T06:16:02.440Z,99983.03
2022-08-21T06:18:28.974Z,99984.56
2022-08-21T06:20:55.629Z,99988.78
2022-08-21T06:23:24.365Z,99987.94
2022-08-21T06:26:00.311Z,99989.63
2022-08-21T06:28:26.813Z,100002.16
2022-08-21T06:30:53.396Z,99994.28
2022-08-21T06:33:20.455Z,99993.59
2022-08-21T06:35:46.888Z,99997.56
2022-08-21T06:38:13.505Z,99999.25
2022-08-21T06:40:43.890Z,100000.94
2022-08-21T06:43:16.996Z,100002.31
2022-08-21T06:45:45.007Z,99996.81
2022-08-21T06:48:14.537Z,99994.81
2022-08-21T06:50:43.477Z,99996.81
2022-08-21T06:53:14.001Z,99994.66
2022-08-21T06:55:40.955Z,99991.97
2022-08-21T06:58:07.884Z,99991.81
2022-08-21T07:00:35.790Z,99997.41
2022-08-21T07:03:02.407Z,99993.28
2022-08-21T07:05:32.304Z,99995.19
2022-08-21T07:07:58.915Z,99997.25
2022-08-21T07:10:26.636Z,99999.16
2022-08-21T07:13:00.551Z,99995.84
2022-08-21T07:15:30.467Z,99989.00
2022-08-21T07:17:57.947Z,99991.88
2022-08-21T07:20:24.435Z,99987.59
2022-08-21T07:22:50.943Z,99994.13
2022-08-21T07:25:17.444Z,99995.38
2022-08-21T07:27:43.889Z,99979.84
2022-08-21T07:30:10.743Z,99981.72
2022-08-21T07:32:37.267Z,99982.75
2022-08-21T07:35:04.548Z,99982.09
2022-08-21T07:37:31.039Z,99984.97
2022-08-21T07:39:57.617Z,99985.19
2022-08-21T07:42:24.291Z,99970.09
2022-08-21T07:44:53.149Z,99977.50
2022-08-21T07:47:41.268Z,99980.53
2022-08-21T07:50:10.811Z,99967.66
2022-08-21T07:52:37.848Z,99977.03
2022-08-21T07:55:06.570Z,99971.19
2022-08-21T07:57:33.574Z,99972.53
2022-08-21T08:00:00.150Z,99969.22
2022-08-21T08:02:30.590Z,99978.13
2022-08-21T08:05:04.528Z,99970.25
2022-08-21T08:07:31.374Z,99965.94
2022-08-21T08:09:58.848Z,99959.03
2022-08-21T08:12:30.543Z,99973.50
2022-08-21T08:15:00.912Z,99970.47
2022-08-21T08:17:27.703Z,99971.16
2022-08-21T08:19:54.790Z,99969.44
2022-08-21T08:22:24.823Z,99973.97
2022-08-21T08:24:52.692Z,99964.59
2022-08-21T08:27:20.493Z,99959.19
2022-08-21T08:29:48.285Z,99968.09
2022-08-21T08:32:14.893Z,99961.03
2022-08-21T08:34:41.387Z,99960.19
2022-08-21T08:37:09.688Z,99955.97
2022-08-21T08:39:36.462Z,99948.03
2022-08-21T08:42:34.067Z,99946.16
2022-08-21T08:45:04.416Z,99943.44
2022-08-21T08:47:32.307Z,99943.41
2022-08-21T08:50:18.652Z,99937.63
2022-08-21T08:53:07.980Z,99934.88
2022-08-21T08:55:38.572Z,99926.41
2022-08-21T08:58:05.183Z,99924.69
2022-08-21T09:00:31.953Z,99929.22
2022-08-21T09:03:01.090Z,99926.47
2022-08-21T09:05:41.839Z,99924.72
2022-08-21T09:08:19.067Z,99928.41
2022-08-21T09:11:01.814Z,99914.03
2022-08-21T09:13:50.669Z,99918.31
2022-08-21T09:16:35.631Z,99911.66
2022-08-21T09:19:04.928Z,99911.09
2022-08-21T09:21:42.779Z,99900.81
2022-08-21T09:24:33.005Z,99900.06
2022-08-21T09:27:18.954Z,99897.84
2022-08-21T09:29:51.857Z,99893.19
2022-08-21T09:32:36.699Z,99905.16
2022-08-21T09:35:10.057Z,99906.25
2022-08-21T09:37:57.683Z,99903.41
2022-08-21T09:40:33.313Z,99898.28
2022-08-21T09:43:04.089Z,99902.56
2022-08-21T09:45:34.080Z,99906.19
2022-08-21T09:48:20.007Z,99907.97
2022-08-21T09:50:48.494Z,99901.63
2022-08-21T09:53:43.248Z,99905.22
2022-08-21T09:56:46.287Z,99910.34
2022-08-21T09:59:36.523Z,99898.81
2022-08-21T10:02:28.315Z,99901.09
2022-08-21T10:05:00.182Z,99903.75
2022-08-21T10:07:28.988Z,99907.53
2022-08-21T10:10:04.133Z,99901.59
2022-08-21T10:12:55.316Z,99898.03
2022-08-21T10:15:56.239Z,99886.19
2022-08-21T10:18:37.199Z,99895.97
2022-08-21T10:21:19.391Z,99906.03
2022-08-21T10:24:11.499Z,99903.44
2022-08-21T10:27:06.984Z,99887.38
2022-08-21T10:29:46.053Z,99888.66
2022-08-21T10:32:27.088Z,99891.16
2022-08-21T10:35:18.153Z,99884.53
2022-08-21T10:37:56.606Z,99885.44
2022-08-21T10:40:28.545Z,99880.28
2022-08-21T10:43:32.927Z,99880.38
2022-08-21T10:46:17.491Z,99880.63
2022-08-21T10:48:55.443Z,99872.28
2022-08-21T10:51:39.504Z,99866.13
2022-08-21T10:54:18.202Z,99863.63
2022-08-21T10:56:52.400Z,99861.56
2022-08-21T10:59:29.593Z,99867.59
2022-08-21T11:02:16.639Z,99873.13
2022-08-21T11:05:01.085Z,99870.50
2022-08-21T11:07:34.100Z,99867.03
2022-08-21T11:10:08.699Z,99864.78
2022-08-21T11:12:42.262Z,99859.19
2022-08-21T11:15:30.965Z,99856.97
2022-08-21T11:18:38.140Z,99848.88
2022-08-21T11:21:26.329Z,99845.19
2022-08-21T11:24:05.771Z,99848.13
2022-08-21T11:26:40.808Z,99848.97
2022-08-21T11:29:13.260Z,99847.72
2022-08-21T11:32:15.975Z,99846.00
2022-08-21T11:35:15.545Z,99840.34
2022-08-21T11:37:55.920Z,99847.78
2022-08-21T11:40:56.111Z,99840.47
2022-08-21T11:43:37.141Z,99837.34
2022-08-21T11:46:18.885Z,99835.75
2022-08-21T11:49:16.071Z,99831.19
2022-08-21T11:51:50.872Z,99832.50
2022-08-21T11:54:36.700Z,99815.91
2022-08-21T11:57:08.894Z,99812.22
2022-08-21T11:59:50.840Z,99818.69
2022-08-21T12:02:21.138Z,99821.84
2022-08-21T12:04:53.982Z,99816.22
2022-08-21T12:07:44.545Z,99813.53
2022-08-21T12:10:15.571Z,99811.91
2022-08-21T12:12:44.920Z,99810.88
2022-08-21T12:15:20.369Z,99815.47
2022-08-21T12:17:57.387Z,99806.50
2022-08-21T12:20:57.848Z,99803.03
2022-08-21T12:23:44.339Z,99803.63
2022-08-21T12:26:19.504Z,99804.72
2022-08-21T12:28:45.977Z,99799.09
2022-08-21T12:31:20.975Z,99805.97
2022-08-21T12:33:53.349Z,99794.31
2022-08-21T12:36:26.636Z,99792.47
2022-08-21T12:38:59.955Z,99797.66
2022-08-21T12:41:42.611Z,99789.72
2022-08-21T12:44:17.860Z,99786.41
2022-08-21T12:46:52.680Z,99789.28
2022-08-21T12:49:35.387Z,99801.41
2022-08-21T12:52:04.512Z,99792.03
2022-08-21T12:54:33.357Z,99794.72
2022-08-21T12:57:02.015Z,99790.56
2022-08-21T12:59:29.155Z,99793.06
2022-08-21T13:01:56.347Z,99789.09
2022-08-21T13:04:35.367Z,99789.94
2022-08-21T13:07:02.105Z,99779.69
2022-08-21T13:09:30.439Z,99785.94
2022-08-21T13:11:57.899Z,99791.38
2022-08-21T13:14:28.208Z,99788.00
2022-08-21T13:16:59.225Z,99788.63
2022-08-21T13:19:26.541Z,99788.41
2022-08-21T13:21:53.688Z,99791.75
2022-08-21T13:24:43.625Z,99780.44
2022-08-21T13:27:26.131Z,99785.25
2022-08-21T13:30:11.941Z,99784.13
2022-08-21T13:32:43.641Z,99772.19
2022-08-21T13:35:20.268Z,99781.81
2022-08-21T13:37:48.684Z,99771.97
2022-08-21T13:40:18.872Z,99780.94
2022-08-21T13:42:47.907Z,99785.53
2022-08-21T13:45:26.647Z,99780.13
2022-08-21T13:47:53.892Z,99778.06
2022-08-21T13:50:21.946Z,99778.97
2022-08-21T13:52:54.942Z,99777.53
2022-08-21T13:55:21.445Z,99774.81
2022-08-21T13:57:47.978Z,99766.25
2022-08-21T14:00:20.759Z,99766.81
2022-08-21T14:02:49.843Z,99757.13
2022-08-21T14:05:38.161Z,99763.63
2022-08-21T14:08:14.120Z,99755.91
2022-08-21T14:10:55.958Z,99757.25
2022-08-21T14:13:42.656Z,99753.78
2022-08-21T14:16:13.825Z,99743.72
2022-08-21T14:18:54.815Z,99747.59
2022-08-21T14:21:36.761Z,99739.19
2022-08-21T14:24:13.480Z,99732.91
2022-08-21T14:26:47.832Z,99729.28
2022-08-21T14:29:16.362Z,99731.31
2022-08-21T14:31:44.036Z,99727.63
2022-08-21T14:34:19.789Z,99723.63
2022-08-21T14:36:47.741Z,99721.34
2022-08-21T14:39:14.629Z,99719.69
2022-08-21T14:41:41.156Z,99720.34
2022-08-21T14:44:09.670Z,99721.50
2022-08-21T14:46:36.480Z,99714.44
2022-08-21T14:49:10.514Z,99710.75
2022-08-21T14:51:37.026Z,99709.19
2022-08-21T14:54:14.743Z,99705.31
2022-08-21T14:56:41.235Z,99702.16
2022-08-21T14:59:08.798Z,99706.84
2022-08-21T15:01:45.278Z,99703.28
2022-08-21T15:04:12.539Z,99699.72
2022-08-21T15:06:39.044Z,99705.84
2022-08-21T15:09:06.477Z,99706.91
2022-08-21T15:11:42.227Z,99707.91
2022-08-21T15:14:13.588Z,99699.59
2022-08-21T15:16:40.092Z,99702.97
2022-08-21T15:19:06.516Z,99704.19
2022-08-21T15:21:33.012Z,99708.94
2022-08-21T15:23:59.477Z,99709.63
2022-08-21T15:26:26.073Z,99713.03
2022-08-21T15:28:52.679Z,99709.31
2022-08-21T15:31:19.189Z,99706.03
2022-08-21T15:33:45.691Z,99712.50
2022-08-21T15:36:12.140Z,99710.50
2022-08-21T15:38:38.767Z,99700.16
2022-08-21T15:41:05.803Z,99706.56
2022-08-21T15:43:49.248Z,99704.91
2022-08-21T15:46:17.611Z,99701.56
2022-08-21T15:48:44.183Z,99700.44
2022-08-21T15:51:11.510Z,99701.13
2022-08-21T15:53:40.778Z,99697.09
2022-08-21T15:56:10.998Z,99690.22
2022-08-21T15:58:37.542Z,99682.34
2022-08-21T16:01:04.131Z,99680.75
2022-08-21T16:03:30.711Z,99684.81
2022-08-21T16:05:58.072Z,99677.06
2022-08-21T16:08:25.385Z,99681.34
2022-08-21T16:10:53.273Z,99685.50
2022-08-21T16:13:26.091Z,99684.53
2022-08-21T16:15:53.211Z,99679.47
2022-08-21T16:18:20.387Z,99686.72
2022-08-21T16:20:46.921Z,99696.78
2022-08-21T16:23:13.512Z,99681.88
2022-08-21T16:25:41.328Z,99670.81
2022-08-21T16:28:10.351Z,99677.44
2022-08-21T16:30:38.703Z,99681.25
2022-08-21T16:33:06.184Z,99674.72
2022-08-21T16:35:32.696Z,99672.16
2022-08-21T16:37:59.416Z,99670.03
2022-08-21T16:40:27.660Z,99664.13
2022-08-21T16:42:54.189Z,99663.78
2022-08-21T16:45:24.071Z,99655.69
2022-08-21T16:47:51.243Z,99647.44
2022-08-21T16:50:22.322Z,99654.09
2022-08-21T16:52:49.024Z,99646.44
2022-08-21T16:55:15.533Z,99645.09
2022-08-21T16:57:42.431Z,99647.88
2022-08-21T17:00:13.777Z,99645.22
2022-08-21T17:02:44.575Z,99642.56
2022-08-21T17:05:14.079Z,99648.88
2022-08-21T17:07:41.633Z,99648.72
2022-08-21T17:10:09.187Z,99643.09
2022-08-21T17:12:35.895Z,99644.00
2022-08-21T17:15:12.050Z,99648.91
2022-08-21T17:17:38.593Z,99639.97
2022-08-21T17:20:05.953Z,99638.34
2022-08-21T17:22:32.942Z,99647.00
2022-08-21T17:24:59.592Z,99647.25
2022-08-21T17:27:28.083Z,99638.41
2022-08-21T17:29:55.385Z,99643.91
2022-08-21T17:32:23.840Z,99647.97
2022-08-21T17:34:50.368Z,99636.13
2022-08-21T17:37:16.897Z,99637.56
2022-08-21T17:39:43.461Z,99632.84
2022-08-21T17:42:13.505Z,99633.72
2022-08-21T17:44:42.454Z,99632.50
2022-08-21T17:47:09.611Z,99630.03
2022-08-21T17:49:36.238Z,99631.75
2022-08-21T17:52:03.518Z,99626.28
2022-08-21T17:54:30.305Z,99627.78
2022-08-21T17:56:57.122Z,99622.13
2022-08-21T17:59:24.297Z,99631.09
2022-08-21T18:01:50.833Z,99629.84
2022-08-21T18:04:17.606Z,99634.63
2022-08-21T18:06:44.630Z,99630.25
2022-08-21T18:09:12.749Z,99630.81
2022-08-21T18:11:41.479Z,99626.41
2022-08-21T18:14:08.462Z,99628.91
2022-08-21T18:16:37.382Z,99633.66
2022-08-21T18:19:08.400Z,99636.16
2022-08-21T18:21:35.237Z,99639.22
2022-08-21T18:24:01.705Z,99639.63
2022-08-21T18:26:34.642Z,99642.47
2022-08-21T18:29:01.783Z,99629.50
2022-08-21T18:31:30.441Z,99642.19
2022-08-21T18:33:58.794Z,99640.69
2022-08-21T18:36:27.483Z,99647.09
2022-08-21T18:39:04.382Z,99649.53
2022-08-21T18:41:40.660Z,99654.88
2022-08-21T18:44:07.404Z,99656.72
2022-08-21T18:46:33.841Z,99656.03
2022-08-21T18:49:00.281Z,99652.44
2022-08-21T18:51:26.741Z,99658.63
2022-08-21T18:53:56.185Z,99659.31
2022-08-21T18:56:22.722Z,99659.94
2022-08-21T18:58:50.918Z,99659.72
2022-08-21T19:01:17.799Z,99666.16
2022-08-21T19:03:45.395Z,99674.66
2022-08-21T19:06:12.115Z,99676.91
2022-08-21T19:08:38.629Z,99671.03
2022-08-21T19:11:06.473Z,99676.38
2022-08-21T19:13:33.420Z,99671.56
2022-08-21T19:16:03.562Z,99666.94
2022-08-21T19:18:32.516Z,99679.13
2022-08-21T19:20:58.944Z,99681.56
2022-08-21T19:23:29.484Z,99676.53
2022-08-21T19:26:00.553Z,99674.44
2022-08-21T19:28:36.960Z,99676.69
2022-08-21T19:34:04.919Z,99682.22
2022-08-21T19:36:32.432Z,99673.84
2022-08-21T19:39:00.163Z,99691.97
2022-08-21T19:41:28.897Z,99690.03
2022-08-21T19:43:57.347Z,99687.06
2022-08-21T19:46:27.351Z,99680.19
2022-08-21T19:48:54.865Z,99692.19
2022-08-21T19:51:23.924Z,99684.28
2022-08-21T19:53:55.813Z,99680.53
2022-08-21T19:56:27.262Z,99692.38
2022-08-21T19:58:54.789Z,99692.47
2022-08-21T20:01:22.925Z,99686.78
2022-08-21T20:03:53.861Z,99689.13
2022-08-21T20:06:21.986Z,99687.06
2022-08-21T20:08:51.403Z,99688.94
2022-08-21T20:11:31.683Z,99687.63
2022-08-21T20:13:59.403Z,99687.00
2022-08-21T20:16:28.264Z,99688.84
2022-08-21T20:18:55.201Z,99688.19
2022-08-21T20:21:21.656Z,99691.91
2022-08-21T20:23:49.067Z,99690.63
2022-08-21T20:26:16.603Z,99702.34
2022-08-21T20:28:44.006Z,99701.38
2022-08-21T20:31:10.904Z,99698.59
2022-08-21T20:33:41.746Z,99695.81
2022-08-21T20:36:08.349Z,99693.00
2022-08-21T20:38:36.009Z,99696.75
2022-08-21T20:41:03.083Z,99695.38
2022-08-21T20:43:31.115Z,99697.44
2022-08-21T20:45:57.864Z,99695.28
2022-08-21T20:48:27.482Z,99685.53
2022-08-21T20:51:12.673Z,99699.66
2022-08-21T20:53:48.924Z,99691.56
2022-08-21T20:56:25.113Z,99686.19
2022-08-21T20:59:32.951Z,99690.75
2022-08-21T21:02:36.421Z,99694.66
2022-08-21T21:05:18.736Z,99696.88
2022-08-21T21:07:57.791Z,99696.19
2022-08-21T21:10:33.368Z,99698.22
2022-08-21T21:13:09.962Z,99699.28
2022-08-21T21:15:36.807Z,99695.25
2022-08-21T21:18:19.073Z,99699.81
2022-08-21T21:20:50.215Z,99693.75
2022-08-21T21:23:28.752Z,99697.50
2022-08-21T21:26:32.385Z,99700.72
2022-08-21T21:29:12.201Z,99704.41
2022-08-21T21:31:41.083Z,99708.13
2022-08-21T21:34:07.837Z,99704.97
2022-08-21T21:36:56.852Z,99701.63
2022-08-21T21:39:43.652Z,99713.41
2022-08-21T21:42:35.921Z,99713.94
2022-08-21T21:45:25.147Z,99714.13
2022-08-21T21:48:08.153Z,99706.22
2022-08-21T21:51:00.980Z,99717.38
2022-08-21T21:53:55.431Z,99718.56
2022-08-21T21:56:30.641Z,99705.63
2022-08-21T21:59:14.456Z,99709.72
2022-08-21T22:02:02.679Z,99708.69
2022-08-21T22:05:08.789Z,99702.66
2022-08-21T22:08:08.045Z,99707.03
2022-08-21T22:10:57.554Z,99712.22
2022-08-21T22:13:38.607Z,99708.53
2022-08-21T22:16:06.968Z,99716.22
2022-08-21T22:18:44.216Z,99711.69
2022-08-21T22:21:18.146Z,99707.13
2022-08-21T22:23:52.927Z,99713.47
2022-08-21T22:26:33.818Z,99714.78
2022-08-21T22:29:05.388Z,99717.78
2022-08-21T22:31:34.857Z,99725.75
2022-08-21T22:34:06.413Z,99730.16
2022-08-21T22:36:50.194Z,99734.03
2022-08-21T22:42:24.937Z,99736.06
2022-08-21T22:45:01.253Z,99738.78
2022-08-21T22:47:35.070Z,99730.03
2022-08-21T22:50:05.331Z,99732.22
2022-08-21T22:52:35.211Z,99728.22
2022-08-21T22:55:15.664Z,99729.09
2022-08-21T22:57:43.545Z,99729.53
2022-08-21T23:00:20.911Z,99729.72
2022-08-21T23:02:52.231Z,99719.97
2022-08-21T23:05:30.528Z,99733.47
2022-08-21T23:08:36.672Z,99728.00
2022-08-21T23:11:13.516Z,99719.78
2022-08-21T23:13:44.081Z,99729.03
2022-08-21T23:19:42.871Z,99728.72
2022-08-21T23:22:51.256Z,99729.91
2022-08-21T23:25:32.765Z,99726.22
2022-08-21T23:28:33.361Z,99725.19
2022-08-21T23:31:19.070Z,99733.94
2022-08-21T23:34:25.756Z,99721.81
2022-08-21T23:40:41.053Z,99720.50
2022-08-21T23:43:41.649Z,99723.53
2022-08-21T23:49:30.581Z,99720.38
2022-08-21T23:52:16.911Z,99718.41
2022-08-21T23:54:52.823Z,99711.84
2022-08-21T23:57:39.504Z,99715.72
